Time,TemperatureF,DewpointF,PressureIn,WindDirection,WindDirectionDegrees,WindSpeedMPH,WindSpeedGustMPH,Humidity,HourlyPrecipIn,Conditions,Clouds,dailyrainin,SoftwareType,DateUTC
2013-04-15 00:46:00,46.7,29.0,29.57,South,180,5.0,-999.0,50,-99.99,,,0.00,weatherlink.com 1.10,2013-04-15 07:46:00,
2013-04-15 01:01:00,46.1,29.0,29.57,South,174,0.0,-999.0,51,-99.99,,,0.00,weatherlink.com 1.10,2013-04-15 08:01:00,
2013-04-15 01:16:00,45.7,28.0,29.58,SW,226,3.0,-999.0,51,-99.99,,,0.00,weatherlink.com 1.10,2013-04-15 08:16:00,
2013-04-15 01:31:00,46.0,28.0,29.59,SSW,211,2.0,-999.0,50,-99.99,,,0.00,weatherlink.com 1.10,2013-04-15 08:31:00,
2013-04-15 01:46:00,45.9,27.0,29.58,SSW,194,1.0,-999.0,48,-99.99,,,0.00,weatherlink.com 1.10,2013-04-15 08:46:00,
2013-04-15 02:01:00,45.6,27.0,29.58,SSW,211,1.0,-999.0,48,-99.99,,,0.00,weatherlink.com 1.10,2013-04-15 09:01:00,
2013-04-15 02:17:00,45.2,27.0,29.58,SSW,202,7.0,-999.0,49,-99.99,,,0.00,weatherlink.com 1.10,2013-04-15 09:17:00,
2013-04-15 02:32:00,45.0,27.0,29.57,South,179,1.0,-999.0,49,-99.99,,,0.00,weatherlink.com 1.10,2013-04-15 09:32:00,
2013-04-15 02:47:00,44.8,27.0,29.56,South,172,0.0,-999.0,50,-99.99,,,0.00,weatherlink.com 1.10,2013-04-15 09:47:00,
2013-04-15 03:02:00,44.5,27.0,29.57,SW,217,4.0,-999.0,51,-99.99,,,0.00,weatherlink.com 1.10,2013-04-15 10:02:00,
2013-04-15 03:17:00,44.0,27.0,29.57,SE,146,2.0,-999.0,51,-99.99,,,0.00,weatherlink.com 1.10,2013-04-15 10:17:00,
2013-04-15 03:32:00,43.6,27.0,29.57,South,178,1.0,-999.0,52,-99.99,,,0.00,weatherlink.com 1.10,2013-04-15 10:32:00,
2013-04-15 03:47:00,43.5,27.0,29.57,SW,218,3.0,-999.0,52,-99.99,,,0.00,weatherlink.com 1.10,2013-04-15 10:47:00,
2013-04-15 04:17:00,43.5,26.0,29.57,SSW,201,3.0,-999.0,51,-99.99,,,0.00,weatherlink.com 1.10,2013-04-15 11:17:00,
2013-04-15 04:32:00,43.3,27.0,29.57,SW,224,0.0,-999.0,52,-99.99,,,0.00,weatherlink.com 1.10,2013-04-15 11:32:00,
2013-04-15 04:47:00,43.4,27.0,29.57,SE,137,4.0,-999.0,52,-99.99,,,0.00,weatherlink.com 1.10,2013-04-15 11:47:00,
2013-04-15 05:02:00,43.4,27.0,29.57,South,183,2.0,-999.0,52,-99.99,,,0.00,weatherlink.com 1.10,2013-04-15 12:02:00,
2013-04-15 05:17:00,43.3,27.0,29.57,SW,220,6.0,-999.0,53,-99.99,,,0.00,weatherlink.com 1.10,2013-04-15 12:17:00,
2013-04-15 05:47:00,42.9,27.0,29.57,South,188,6.0,-999.0,54,-99.99,,,0.00,weatherlink.com 1.10,2013-04-15 12:47:00,
2013-04-15 06:02:00,42.7,27.0,29.57,South,186,2.0,-999.0,55,-99.99,,,0.00,weatherlink.com 1.10,2013-04-15 13:02:00,
2013-04-15 06:17:00,42.4,28.0,29.58,SSW,199,2.0,-999.0,56,-99.99,,,0.00,weatherlink.com 1.10,2013-04-15 13:17:00,
2013-04-15 06:32:00,42.2,28.0,29.59,SSE,156,2.0,-999.0,57,-99.99,,,0.00,weatherlink.com 1.10,2013-04-15 13:32:00,
2013-04-15 06:47:00,42.3,28.0,29.59,SW,215,3.0,-999.0,58,-99.99,,,0.00,weatherlink.com 1.10,2013-04-15 13:47:00,
2013-04-15 07:02:00,42.7,29.0,29.59,SSW,192,0.0,-999.0,58,-99.99,,,0.00,weatherlink.com 1.10,2013-04-15 14:02:00,
2013-04-15 07:17:00,43.4,29.0,29.59,SW,230,7.0,-999.0,57,-99.99,,,0.00,weatherlink.com 1.10,2013-04-15 14:17:00,
2013-04-15 07:32:00,44.1,30.0,29.59,SSW,198,4.0,-999.0,57,-99.99,,,0.00,weatherlink.com 1.10,2013-04-15 14:32:00,
2013-04-15 07:48:00,44.7,30.0,29.60,SW,221,5.0,-999.0,56,-99.99,,,0.00,weatherlink.com 1.10,2013-04-15 14:48:00,
2013-04-15 08:02:00,45.3,30.0,29.59,SW,219,13.0,-999.0,55,-99.99,,,0.00,weatherlink.com 1.10,2013-04-15 15:02:00,
2013-04-15 08:17:00,46.1,30.0,29.60,South,170,3.0,-999.0,54,-99.99,,,0.00,weatherlink.com 1.10,2013-04-15 15:17:00,
2013-04-15 08:32:00,46.8,31.0,29.60,SW,234,3.0,-999.0,54,-99.99,,,0.00,weatherlink.com 1.10,2013-04-15 15:32:00,
2013-04-15 08:47:00,47.1,31.0,29.61,SSW,203,2.0,-999.0,53,-99.99,,,0.00,weatherlink.com 1.10,2013-04-15 15:47:00,
2013-04-15 09:02:00,47.9,31.0,29.61,WSW,250,7.0,-999.0,52,-99.99,,,0.00,weatherlink.com 1.10,2013-04-15 16:02:00,
2013-04-15 09:17:00,47.7,31.0,29.62,WSW,257,3.0,-999.0,53,-99.99,,,0.00,weatherlink.com 1.10,2013-04-15 16:17:00,
2013-04-15 09:32:00,48.5,31.0,29.61,SSE,168,3.0,-999.0,52,-99.99,,,0.00,weatherlink.com 1.10,2013-04-15 16:32:00,
2013-04-15 09:47:00,49.2,33.0,29.61,ESE,102,5.0,-999.0,53,-99.99,,,0.00,weatherlink.com 1.10,2013-04-15 16:47:00,
2013-04-15 10:02:00,49.5,32.0,29.61,SSW,200,9.0,-999.0,51,-99.99,,,0.00,weatherlink.com 1.10,2013-04-15 17:02:00,
2013-04-15 10:17:00,50.5,33.0,29.60,South,173,2.0,-999.0,51,-99.99,,,0.00,weatherlink.com 1.10,2013-04-15 17:17:00,
2013-04-15 10:33:00,51.3,33.0,29.60,SW,225,9.0,-999.0,49,-99.99,,,0.00,weatherlink.com 1.10,2013-04-15 17:33:00,
2013-04-15 10:47:00,51.3,33.0,29.60,South,184,9.0,-999.0,50,-99.99,,,0.00,weatherlink.com 1.10,2013-04-15 17:47:00,
2013-04-15 11:33:00,54.3,33.0,29.59,WSW,252,6.0,-999.0,45,-99.99,,,0.00,weatherlink.com 1.10,2013-04-15 18:33:00,
2013-04-15 11:48:00,55.1,33.0,29.59,SSW,208,4.0,-999.0,43,-99.99,,,0.00,weatherlink.com 1.10,2013-04-15 18:48:00,
2013-04-15 12:03:00,55.4,34.0,29.59,SSW,196,16.0,-999.0,45,-99.99,,,0.00,weatherlink.com 1.10,2013-04-15 19:03:00,
2013-04-15 12:18:00,56.4,34.0,29.57,WSW,255,3.0,-999.0,43,-99.99,,,0.00,weatherlink.com 1.10,2013-04-15 19:18:00,
2013-04-15 12:48:00,57.8,33.0,29.57,SW,215,6.0,-999.0,39,-99.99,,,0.00,weatherlink.com 1.10,2013-04-15 19:48:00,
2013-04-15 13:03:00,57.8,33.0,29.57,SSW,205,3.0,-999.0,39,-99.99,,,0.00,weatherlink.com 1.10,2013-04-15 20:03:00,
2013-04-15 13:18:00,57.6,33.0,29.57,SW,229,7.0,-999.0,40,-99.99,,,0.00,weatherlink.com 1.10,2013-04-15 20:18:00,
2013-04-15 13:33:00,58.1,33.0,29.57,SSW,192,5.0,-999.0,39,-99.99,,,0.00,weatherlink.com 1.10,2013-04-15 20:33:00,
2013-04-15 13:48:00,58.6,33.0,29.58,West,271,4.0,-999.0,38,-99.99,,,0.00,weatherlink.com 1.10,2013-04-15 20:48:00,
2013-04-15 14:03:00,58.7,33.0,29.59,SSE,160,5.0,-999.0,38,-99.99,,,0.00,weatherlink.com 1.10,2013-04-15 21:03:00,
2013-04-15 14:18:00,59.1,31.0,29.58,WSW,251,11.0,-999.0,34,-99.99,,,0.00,weatherlink.com 1.10,2013-04-15 21:18:00,
2013-04-15 14:33:00,58.6,30.0,29.58,SW,219,6.0,-999.0,34,-99.99,,,0.00,weatherlink.com 1.10,2013-04-15 21:33:00,
2013-04-15 14:48:00,58.7,30.0,29.58,WSW,239,9.0,-999.0,34,-99.99,,,0.00,weatherlink.com 1.10,2013-04-15 21:48:00,
2013-04-15 15:03:00,59.7,31.0,29.58,SW,225,2.0,-999.0,34,-99.99,,,0.00,weatherlink.com 1.10,2013-04-15 22:03:00,
2013-04-15 15:18:00,58.8,30.0,29.57,SW,221,2.0,-999.0,34,-99.99,,,0.00,weatherlink.com 1.10,2013-04-15 22:18:00,
2013-04-15 15:33:00,58.7,31.0,29.58,South,172,7.0,-999.0,35,-99.99,,,0.00,weatherlink.com 1.10,2013-04-15 22:33:00,
2013-04-15 15:48:00,58.1,30.0,29.58,SSW,199,3.0,-999.0,35,-99.99,,,0.00,weatherlink.com 1.10,2013-04-15 22:48:00,
2013-04-15 16:03:00,57.6,31.0,29.57,SW,233,1.0,-999.0,36,-99.99,,,0.00,weatherlink.com 1.10,2013-04-15 23:03:00,
2013-04-15 16:18:00,57.0,31.0,29.57,WSW,257,4.0,-999.0,38,-99.99,,,0.00,weatherlink.com 1.10,2013-04-15 23:18:00,
2013-04-15 16:33:00,56.7,32.0,29.57,South,169,6.0,-999.0,39,-99.99,,,0.00,weatherlink.com 1.10,2013-04-15 23:33:00,
2013-04-15 16:48:00,56.4,32.0,29.57,SW,215,4.0,-999.0,39,-99.99,,,0.00,weatherlink.com 1.10,2013-04-15 23:48:00,
2013-04-15 17:03:00,56.2,32.0,29.57,WSW,255,4.0,-999.0,40,-99.99,,,0.00,weatherlink.com 1.10,2013-04-16 00:03:00,
2013-04-15 17:18:00,55.7,32.0,29.57,South,179,5.0,-999.0,40,-99.99,,,0.00,weatherlink.com 1.10,2013-04-16 00:18:00,
2013-04-15 17:33:00,55.2,32.0,29.57,SE,143,7.0,-999.0,41,-99.99,,,0.00,weatherlink.com 1.10,2013-04-16 00:33:00,
2013-04-15 17:48:00,55.1,31.0,29.57,WSW,238,5.0,-999.0,40,-99.99,,,0.00,weatherlink.com 1.10,2013-04-16 00:48:00,
2013-04-15 18:03:00,54.4,32.0,29.57,SE,128,4.0,-999.0,42,-99.99,,,0.00,weatherlink.com 1.10,2013-04-16 01:03:00,
2013-04-15 18:18:00,53.6,32.0,29.58,WSW,254,5.0,-999.0,44,-99.99,,,0.00,weatherlink.com 1.10,2013-04-16 01:18:00,
2013-04-15 18:33:00,52.8,30.0,29.58,South,190,3.0,-999.0,42,-99.99,,,0.00,weatherlink.com 1.10,2013-04-16 01:33:00,
2013-04-15 18:48:00,51.9,30.0,29.58,WSW,241,9.0,-999.0,44,-99.99,,,0.00,weatherlink.com 1.10,2013-04-16 01:48:00,
2013-04-15 19:03:00,51.3,31.0,29.58,WSW,252,4.0,-999.0,46,-99.99,,,0.00,weatherlink.com 1.10,2013-04-16 02:03:00,
2013-04-15 19:18:00,50.9,32.0,29.57,South,186,2.0,-999.0,48,-99.99,,,0.00,weatherlink.com 1.10,2013-04-16 02:18:00,
2013-04-15 19:33:00,50.6,32.0,29.58,WSW,239,2.0,-999.0,50,-99.99,,,0.00,weatherlink.com 1.10,2013-04-16 02:33:00,
2013-04-15 19:48:00,50.4,33.0,29.57,SSW,211,4.0,-999.0,51,-99.99,,,0.00,weatherlink.com 1.10,2013-04-16 02:48:00,
2013-04-15 20:03:00,50.3,33.0,29.59,SSE,164,2.0,-999.0,52,-99.99,,,0.00,weatherlink.com 1.10,2013-04-16 03:03:00,
2013-04-15 20:18:00,50.3,34.0,29.59,South,180,6.0,-999.0,53,-99.99,,,0.00,weatherlink.com 1.10,2013-04-16 03:18:00,
2013-04-15 20:33:00,50.3,34.0,29.59,SSE,156,4.0,-999.0,53,-99.99,,,0.00,weatherlink.com 1.10,2013-04-16 03:33:00,
2013-04-15 20:48:00,50.2,33.0,29.60,SW,221,10.0,-999.0,53,-99.99,,,0.00,weatherlink.com 1.10,2013-04-16 03:48:00,
2013-04-15 21:03:00,50.1,33.0,29.61,SW,219,4.0,-999.0,53,-99.99,,,0.00,weatherlink.com 1.10,2013-04-16 04:03:00,
2013-04-15 21:18:00,50.0,33.0,29.62,SW,222,4.0,-999.0,52,-99.99,,,0.00,weatherlink.com 1.10,2013-04-16 04:18:00,
2013-04-15 21:33:00,49.7,33.0,29.62,SSW,207,5.0,-999.0,52,-99.99,,,0.00,weatherlink.com 1.10,2013-04-16 04:33:00,
2013-04-15 21:48:00,49.4,32.0,29.62,SSE,161,6.0,-999.0,52,-99.99,,,0.00,weatherlink.com 1.10,2013-04-16 04:48:00,
2013-04-15 22:03:00,49.1,31.0,29.62,SSE,153,1.0,-999.0,51,-99.99,,,0.00,weatherlink.com 1.10,2013-04-16 05:03:00,
2013-04-15 22:18:00,48.7,31.0,29.62,SW,214,3.0,-999.0,51,-99.99,,,0.00,weatherlink.com 1.10,2013-04-16 05:18:00,
2013-04-15 22:33:00,48.4,30.0,29.63,South,180,5.0,-999.0,50,-99.99,,,0.00,weatherlink.com 1.10,2013-04-16 05:33:00,
2013-04-15 22:48:00,48.1,31.0,29.62,South,188,11.0,-999.0,51,-99.99,,,0.00,weatherlink.com 1.10,2013-04-16 05:48:00,
2013-04-15 23:03:00,47.8,30.0,29.62,SSW,200,3.0,-999.0,51,-99.99,,,0.00,weatherlink.com 1.10,2013-04-16 06:03:00,
2013-04-15 23:18:00,47.4,30.0,29.62,SW,228,5.0,-999.0,52,-99.99,,,0.00,weatherlink.com 1.10,2013-04-16 06:18:00,
2013-04-15 23:33:00,47.1,31.0,29.62,SSW,211,3.0,-999.0,54,-99.99,,,0.00,weatherlink.com 1.10,2013-04-16 06:33:00,
2013-04-15 23:48:00,46.7,32.0,29.62,SW,218,5.0,-999.0,57,-99.99,,,0.00,weatherlink.com 1.10,2013-04-16 06:48:00,